Time;durP1;ratioP1;P1;durP2;ratioP2;P2;SDS_P1;SDS_P2;PMS_P1;PMS_P2;Temp;Humidity;BMP_temperature;BMP_pressure;BME280_temperature;BME280_humidity;BME280_pressure;Samples;Min_cycle;Max_cycle;Signal;HPM_P1;HPM_P2
2021/06/17 00:02:07;;;;;;;10.40;9.20;;;21.30;83.60;;;;;;5118053;28;20103;-70
2021/06/17 00:04:33;;;;;;;11.55;8.05;;;21.10;83.90;;;;;;5117792;28;20486;-70
2021/06/17 00:06:59;;;;;;;14.65;8.60;;;21.00;84.60;;;;;;5117909;28;20017;-70
2021/06/17 00:09:25;;;;;;;13.38;9.00;;;20.90;85.00;;;;;;5117971;28;20032;-70
2021/06/17 00:11:51;;;;;;;14.63;10.13;;;21.00;84.30;;;;;;5117579;28;20028;-70
2021/06/17 00:14:18;;;;;;;12.57;9.43;;;21.00;84.10;;;;;;5116649;28;20039;-70
2021/06/17 00:16:44;;;;;;;10.32;7.38;;;21.00;84.40;;;;;;5117450;28;20015;-70
2021/06/17 00:19:10;;;;;;;13.45;8.98;;;21.00;84.70;;;;;;5117809;28;20050;-70
2021/06/17 00:21:37;;;;;;;11.13;8.43;;;21.00;84.60;;;;;;5117800;28;20412;-70
2021/06/17 00:24:03;;;;;;;13.02;8.65;;;21.00;84.40;;;;;;5117760;28;20043;-70
2021/06/17 00:26:29;;;;;;;12.73;9.50;;;21.00;84.30;;;;;;5117260;28;20024;-71
2021/06/17 00:28:54;;;;;;;12.73;10.82;;;21.10;83.70;;;;;;5117658;28;20320;-70
2021/06/17 00:31:20;;;;;;;16.55;10.95;;;21.10;83.40;;;;;;5114311;28;106823;-71
2021/06/17 00:33:46;;;;;;;16.15;11.55;;;21.00;83.60;;;;;;5118365;28;20024;-70
2021/06/17 00:36:11;;;;;;;12.05;9.20;;;21.00;83.50;;;;;;5118322;28;20319;-70
2021/06/17 00:38:37;;;;;;;9.38;8.18;;;21.00;83.20;;;;;;5118323;28;20431;-70
2021/06/17 00:41:03;;;;;;;9.30;7.80;;;21.00;83.10;;;;;;5118254;28;20094;-71
2021/06/17 00:43:29;;;;;;;12.48;8.27;;;21.00;83.10;;;;;;5118065;28;20038;-70
2021/06/17 00:45:55;;;;;;;13.40;8.90;;;21.00;82.80;;;;;;5117817;28;20062;-70
2021/06/17 00:48:21;;;;;;;9.98;7.10;;;21.00;83.00;;;;;;5117838;28;20363;-72
2021/06/17 00:50:52;;;;;;;9.20;6.80;;;21.00;83.10;;;;;;5117813;28;20034;-72
2021/06/17 00:53:28;;;;;;;13.18;6.53;;;21.00;83.20;;;;;;5117706;28;20023;-71
2021/06/17 00:55:54;;;;;;;;;;;21.00;82.70;;;;;;5118112;28;20024;-70
2021/06/17 00:58:20;;;;;;;14.50;7.00;;;20.80;83.50;;;;;;5117777;28;19903;-70
2021/06/17 01:00:45;;;;;;;9.80;6.53;;;20.70;83.50;;;;;;5117966;28;20015;-70
2021/06/17 01:03:11;;;;;;;11.85;7.22;;;20.70;83.00;;;;;;5117886;28;20034;-70
2021/06/17 01:05:38;;;;;;;11.18;6.60;;;20.80;82.50;;;;;;5117879;28;20016;-70
2021/06/17 01:08:06;;;;;;;6.82;6.15;;;20.80;83.00;;;;;;5117493;28;20114;-71
2021/06/17 01:11:03;;;;;;;14.07;7.93;;;20.80;83.00;;;;;;5117788;28;20027;-70
2021/06/17 01:13:50;;;;;;;8.27;6.55;;;20.60;81.60;;;;;;5117755;28;20376;-70
2021/06/17 01:16:34;;;;;;;8.07;6.80;;;20.70;82.10;;;;;;5117701;28;20035;-70
2021/06/17 01:19:08;;;;;;;8.65;6.20;;;20.70;81.20;;;;;;5117383;28;20415;-70
2021/06/17 01:21:36;;;;;;;9.73;6.40;;;20.70;81.10;;;;;;5117634;28;20023;-70
2021/06/17 01:24:21;;;;;;;8.13;6.00;;;20.70;80.80;;;;;;5117632;28;20305;-70
2021/06/17 01:27:28;;;;;;;12.68;6.40;;;20.80;80.70;;;;;;5117436;28;20342;-70
2021/06/17 01:29:58;;;;;;;8.02;6.35;;;20.90;79.10;;;;;;5117285;28;20131;-70
2021/06/17 01:32:26;;;;;;;8.32;6.00;;;20.90;78.30;;;;;;5117517;28;20107;-70
2021/06/17 01:34:54;;;;;;;9.43;5.75;;;21.00;78.30;;;;;;5117073;28;20420;-70
2021/06/17 01:37:24;;;;;;;11.30;6.00;;;21.00;77.90;;;;;;5117139;28;20416;-70
2021/06/17 01:39:52;;;;;;;7.97;5.57;;;21.10;78.20;;;;;;5117072;28;20021;-70
2021/06/17 01:42:23;;;;;;;8.95;5.95;;;21.10;78.30;;;;;;5117095;28;20050;-70
2021/06/17 01:44:49;;;;;;;7.22;6.18;;;21.10;78.10;;;;;;5117565;28;20107;-70
2021/06/17 01:47:15;;;;;;;8.73;6.35;;;21.10;78.20;;;;;;5117359;28;20077;-70
2021/06/17 01:49:42;;;;;;;8.43;5.60;;;21.10;78.60;;;;;;5116998;28;20131;-70
2021/06/17 01:52:09;;;;;;;9.13;7.13;;;21.00;79.30;;;;;;5117306;28;20050;-70
2021/06/17 01:54:40;;;;;;;9.57;7.38;;;20.90;79.50;;;;;;5116906;28;20368;-70
2021/06/17 01:57:07;;;;;;;12.15;7.65;;;20.80;79.80;;;;;;5117258;28;20114;-70
2021/06/17 01:59:34;;;;;;;14.95;8.45;;;20.80;80.70;;;;;;5116961;28;20093;-70
2021/06/17 02:02:01;;;;;;;10.00;6.38;;;20.70;80.80;;;;;;5116866;28;20438;-70
2021/06/17 02:04:29;;;;;;;7.80;6.20;;;20.60;81.50;;;;;;5117255;28;20031;-70
2021/06/17 02:06:57;;;;;;;9.02;6.00;;;20.40;81.70;;;;;;5117102;28;20028;-70
2021/06/17 02:09:24;;;;;;;10.38;6.15;;;20.30;82.70;;;;;;5117155;28;20028;-70
2021/06/17 02:11:52;;;;;;;8.18;6.18;;;20.20;82.80;;;;;;5117110;28;20024;-70
2021/06/17 02:14:18;;;;;;;9.60;6.45;;;20.20;83.00;;;;;;5117234;28;20046;-70
2021/06/17 02:16:45;;;;;;;7.07;5.78;;;20.20;81.30;;;;;;5116686;28;20020;-70
2021/06/17 02:19:16;;;;;;;6.50;5.90;;;20.30;81.40;;;;;;5117053;28;20020;-70
2021/06/17 02:21:44;;;;;;;14.75;6.53;;;20.30;80.40;;;;;;5116937;28;20368;-70
2021/06/17 02:24:11;;;;;;;12.25;5.90;;;20.50;79.30;;;;;;5116747;28;20431;-70
2021/06/17 02:26:41;;;;;;;11.93;6.70;;;20.50;79.80;;;;;;5116937;28;20023;-70
2021/06/17 02:29:11;;;;;;;11.07;6.78;;;20.60;78.90;;;;;;5116636;28;20073;-70
2021/06/17 02:31:41;;;;;;;9.52;6.28;;;20.70;78.40;;;;;;5116755;28;20331;-70
2021/06/17 02:34:06;;;;;;;9.07;5.15;;;20.80;78.30;;;;;;5116587;28;20419;-70
2021/06/17 02:36:33;;;;;;;10.07;6.97;;;20.90;78.00;;;;;;5116515;28;20112;-70
2021/06/17 02:39:04;;;;;;;9.35;5.97;;;20.80;79.00;;;;;;5120604;28;20047;-70
2021/06/17 02:41:31;;;;;;;13.27;6.78;;;20.80;78.80;;;;;;5120722;28;20028;-70
2021/06/17 02:43:59;;;;;;;8.90;7.00;;;20.80;79.50;;;;;;5120368;28;20098;-70
2021/06/17 02:46:25;;;;;;;10.57;7.65;;;20.80;79.20;;;;;;5120187;28;20055;-70
2021/06/17 02:48:52;;;;;;;11.32;7.78;;;20.80;79.60;;;;;;5120551;28;20369;-70
2021/06/17 02:51:18;;;;;;;10.88;6.28;;;20.80;80.00;;;;;;5120921;28;20034;-70
2021/06/17 02:53:44;;;;;;;11.55;8.25;;;20.70;80.60;;;;;;5120073;28;20030;-70
2021/06/17 02:56:13;;;;;;;9.05;6.03;;;20.40;81.50;;;;;;5120358;28;20020;-70
2021/06/17 02:58:47;;;;;;;11.48;6.45;;;20.20;82.30;;;;;;5120301;28;20099;-70
2021/06/17 03:01:12;;;;;;;9.93;6.95;;;20.10;83.30;;;;;;5119978;28;20027;-70
2021/06/17 03:03:52;;;;;;;12.68;8.88;;;20.00;83.90;;;;;;5120232;28;20053;-70
2021/06/17 03:06:30;;;;;;;12.82;9.15;;;20.00;83.70;;;;;;5119971;28;20332;-70
2021/06/17 03:09:12;;;;;;;14.80;9.48;;;20.00;83.90;;;;;;5120093;28;20315;-70
2021/06/17 03:11:40;;;;;;;11.52;8.48;;;20.00;84.20;;;;;;5120114;28;20031;-70
2021/06/17 03:14:21;;;;;;;9.75;7.32;;;20.00;84.50;;;;;;5119882;28;20297;-70
2021/06/17 03:16:50;;;;;;;6.63;5.93;;;19.90;84.30;;;;;;5119965;28;20028;-70
2021/06/17 03:19:19;;;;;;;9.15;7.38;;;19.90;83.60;;;;;;5119926;28;20069;-70
2021/06/17 03:21:48;;;;;;;10.70;7.78;;;19.90;83.70;;;;;;5119866;28;20031;-70
2021/06/17 03:24:16;;;;;;;11.18;7.82;;;19.80;84.10;;;;;;5119846;28;20026;-70
2021/06/17 03:26:43;;;;;;;14.02;7.88;;;19.70;84.00;;;;;;5119817;28;20387;-70
2021/06/17 03:29:12;;;;;;;9.60;7.45;;;19.60;84.10;;;;;;5119419;28;20412;-70
2021/06/17 03:31:39;;;;;;;10.00;7.05;;;19.60;83.60;;;;;;5119330;28;20420;-70
2021/06/17 03:34:07;;;;;;;14.30;7.80;;;19.70;83.40;;;;;;5119576;28;20034;-70
2021/06/17 03:36:34;;;;;;;8.73;7.18;;;19.70;83.30;;;;;;5119244;27;20020;-70
2021/06/17 03:39:01;;;;;;;12.25;7.32;;;19.70;83.80;;;;;;5118162;28;20054;-70
2021/06/17 03:41:29;;;;;;;10.10;8.00;;;19.70;84.30;;;;;;5119320;28;20415;-70
2021/06/17 03:43:56;;;;;;;11.63;7.70;;;19.70;84.40;;;;;;5119562;28;20035;-70
2021/06/17 03:46:23;;;;;;;9.07;7.68;;;19.80;84.70;;;;;;5119005;28;20024;-70
2021/06/17 03:48:49;;;;;;;10.13;7.35;;;19.90;84.50;;;;;;5118116;28;20031;-70
2021/06/17 03:51:15;;;;;;;10.27;8.27;;;20.00;84.10;;;;;;5119293;28;20032;-70
2021/06/17 03:53:45;;;;;;;10.18;7.72;;;20.00;84.10;;;;;;5118912;28;20031;-70
2021/06/17 03:56:13;;;;;;;10.82;7.82;;;20.00;84.20;;;;;;5119134;28;20354;-70
2021/06/17 03:58:42;;;;;;;9.50;6.80;;;20.00;84.30;;;;;;5119180;28;20028;-70
2021/06/17 04:01:09;;;;;;;10.50;7.07;;;20.00;84.50;;;;;;5118754;28;20016;-70
2021/06/17 04:03:36;;;;;;;8.10;7.13;;;20.00;85.00;;;;;;5119052;28;20034;-70
2021/06/17 04:06:03;;;;;;;8.48;7.57;;;20.00;85.00;;;;;;5118891;28;20042;-70
2021/06/17 04:08:34;;;;;;;12.95;8.38;;;20.00;85.00;;;;;;5117576;28;20366;-70
2021/06/17 04:11:04;;;;;;;13.40;7.25;;;20.00;85.10;;;;;;5118907;28;20038;-70
2021/06/17 04:13:37;;;;;;;8.35;7.43;;;20.00;85.70;;;;;;5118590;28;20035;-70
2021/06/17 04:16:04;;;;;;;10.05;6.95;;;20.00;85.80;;;;;;5118254;28;20080;-70
2021/06/17 04:18:31;;;;;;;12.20;11.00;;;19.90;86.30;;;;;;5118427;28;20081;-70
2021/06/17 04:20:58;;;;;;;15.68;11.80;;;19.90;84.80;;;;;;5118743;28;20066;-70
2021/06/17 04:23:27;;;;;;;13.30;10.48;;;19.90;84.40;;;;;;5118724;28;20322;-70
2021/06/17 04:25:55;;;;;;;13.23;10.73;;;20.10;84.00;;;;;;5118544;28;20035;-70
2021/06/17 04:28:21;;;;;;;12.25;7.82;;;20.20;84.30;;;;;;5118256;28;20056;-70
2021/06/17 04:30:48;;;;;;;9.15;7.70;;;20.30;85.00;;;;;;5118043;27;20047;-70
2021/06/17 04:33:19;;;;;;;14.32;8.45;;;20.40;84.90;;;;;;5118393;27;20027;-70
2021/06/17 04:35:47;;;;;;;8.63;7.72;;;20.30;85.30;;;;;;5118381;28;20080;-70
2021/06/17 04:38:15;;;;;;;11.20;8.05;;;20.40;85.70;;;;;;5118050;28;20035;-70
2021/06/17 04:40:42;;;;;;;11.63;7.90;;;20.50;86.10;;;;;;5118336;28;20046;-70
2021/06/17 04:43:09;;;;;;;10.15;8.23;;;20.50;86.60;;;;;;5118022;28;20039;-70
2021/06/17 04:45:36;;;;;;;8.40;7.38;;;20.60;86.60;;;;;;5117900;28;20028;-70
2021/06/17 04:48:08;;;;;;;9.40;6.95;;;20.70;86.60;;;;;;5118175;28;20024;-70
2021/06/17 04:50:35;;;;;;;8.68;7.15;;;20.80;86.70;;;;;;5117882;28;20031;-70
2021/06/17 04:53:08;;;;;;;8.05;6.43;;;20.90;87.60;;;;;;5117699;28;20104;-70
2021/06/17 04:55:35;;;;;;;10.07;6.63;;;21.00;87.40;;;;;;5117772;28;20022;-70
2021/06/17 04:58:00;;;;;;;12.65;7.38;;;21.10;86.40;;;;;;5117704;28;20034;-70
2021/06/17 05:00:26;;;;;;;9.50;6.93;;;21.20;85.60;;;;;;5117353;28;20023;-70
2021/06/17 05:02:52;;;;;;;9.20;7.20;;;21.30;85.90;;;;;;5117891;28;20035;-70
2021/06/17 05:05:17;;;;;;;9.75;6.65;;;21.40;86.00;;;;;;5117547;28;20031;-70
2021/06/17 05:12:53;;;;;;;9.05;7.50;;;21.70;84.70;;;;;;5117587;28;20480;-70
2021/06/17 05:15:19;;;;;;;9.80;7.20;;;21.90;83.40;;;;;;5117724;28;20012;-70
2021/06/17 05:17:46;;;;;;;10.60;7.45;;;22.00;80.20;;;;;;5117723;28;20035;-70
2021/06/17 05:20:12;;;;;;;8.63;7.18;;;22.20;78.50;;;;;;5117697;28;20305;-70
2021/06/17 05:22:44;;;;;;;8.45;7.10;;;22.40;77.20;;;;;;5117323;28;20023;-70
2021/06/17 05:25:11;;;;;;;10.13;6.70;;;22.50;77.00;;;;;;5117571;28;20101;-71
2021/06/17 05:27:37;;;;;;;8.45;6.82;;;22.60;77.30;;;;;;5117583;28;20127;-70
2021/06/17 05:30:05;;;;;;;10.90;6.97;;;22.70;77.50;;;;;;5117071;28;20126;-70
2021/06/17 05:32:30;;;;;;;10.73;7.88;;;22.70;76.50;;;;;;5117163;28;20035;-70
2021/06/17 05:34:56;;;;;;;10.20;7.35;;;22.80;75.90;;;;;;5117359;28;20028;-70
2021/06/17 05:37:22;;;;;;;8.52;6.43;;;22.90;75.80;;;;;;5117492;28;20027;-70
2021/06/17 05:39:47;;;;;;;6.53;5.80;;;23.00;74.10;;;;;;5117134;28;20104;-70
2021/06/17 05:42:13;;;;;;;9.13;6.70;;;23.00;74.60;;;;;;5117113;28;20020;-70
2021/06/17 05:44:39;;;;;;;11.65;6.85;;;23.00;73.10;;;;;;5117566;28;20031;-70
2021/06/17 05:47:04;;;;;;;7.53;6.20;;;23.00;73.50;;;;;;5116989;28;20118;-70
2021/06/17 05:49:30;;;;;;;7.57;6.07;;;23.10;74.30;;;;;;5117326;28;20073;-70
2021/06/17 05:51:56;;;;;;;19.77;6.38;;;23.20;74.30;;;;;;5117322;28;20031;-70
2021/06/17 05:54:21;;;;;;;8.07;6.63;;;23.30;74.60;;;;;;5116966;28;20095;-70
2021/06/17 05:56:47;;;;;;;9.98;5.95;;;23.40;72.30;;;;;;5116979;28;20028;-70
2021/06/17 05:59:13;;;;;;;12.98;5.75;;;23.60;74.40;;;;;;5116945;28;20076;-70
2021/06/17 06:01:39;;;;;;;11.52;5.50;;;23.80;75.10;;;;;;5116924;28;20027;-71
2021/06/17 06:04:04;;;;;;;7.18;5.30;;;24.00;74.80;;;;;;5117246;28;20054;-71
2021/06/17 06:06:30;;;;;;;21.27;6.65;;;24.40;74.00;;;;;;5117144;28;20032;-71
2021/06/17 06:08:56;;;;;;;9.13;5.88;;;24.90;71.90;;;;;;5116898;28;20496;-71
2021/06/17 06:11:21;;;;;;;8.52;4.80;;;25.00;72.20;;;;;;5116823;28;20027;-71
2021/06/17 06:13:47;;;;;;;8.07;5.20;;;25.10;71.20;;;;;;5120780;28;20039;-71
2021/06/17 06:16:13;;;;;;;9.70;6.90;;;25.40;71.10;;;;;;5120828;28;20141;-71
2021/06/17 06:18:39;;;;;;;10.32;6.90;;;25.80;67.80;;;;;;5121076;28;20035;-71
2021/06/17 06:21:05;;;;;;;14.13;5.53;;;26.40;66.20;;;;;;5121040;28;20027;-70
2021/06/17 06:23:31;;;;;;;7.10;4.72;;;26.80;66.90;;;;;;5121097;28;20046;-71
2021/06/17 06:25:58;;;;;;;10.57;4.78;;;27.30;66.60;;;;;;5120575;28;20427;-70
2021/06/17 06:28:26;;;;;;;6.82;4.43;;;27.70;65.10;;;;;;5120576;28;20028;-71
2021/06/17 06:30:52;;;;;;;6.88;5.30;;;28.00;65.40;;;;;;5120404;28;20059;-71
2021/06/17 06:33:18;;;;;;;8.88;4.75;;;28.20;64.20;;;;;;5120775;28;20027;-71
2021/06/17 06:35:45;;;;;;;6.60;4.78;;;28.30;64.50;;;;;;5120489;28;20031;-70
2021/06/17 06:38:11;;;;;;;10.65;5.05;;;28.80;63.20;;;;;;5120724;28;20374;-71
2021/06/17 06:40:38;;;;;;;9.95;5.22;;;28.90;62.50;;;;;;5120396;28;20093;-70
2021/06/17 06:43:04;;;;;;;7.10;4.50;;;28.90;61.20;;;;;;5120486;28;20076;-71
2021/06/17 06:45:30;;;;;;;6.88;4.72;;;29.00;61.80;;;;;;5120661;28;20146;-70
2021/06/17 06:47:57;;;;;;;6.07;4.40;;;29.30;60.30;;;;;;5120255;28;20164;-71
2021/06/17 06:50:23;;;;;;;9.45;4.32;;;29.60;59.80;;;;;;5120582;28;20080;-71
2021/06/17 06:52:49;;;;;;;10.00;3.97;;;29.70;59.30;;;;;;5120356;28;20019;-71
2021/06/17 06:55:15;;;;;;;8.18;4.30;;;29.80;59.20;;;;;;5120048;28;20104;-71
2021/06/17 06:57:41;;;;;;;7.18;4.18;;;29.90;58.40;;;;;;5120377;28;20103;-71
2021/06/17 07:00:09;;;;;;;6.00;4.32;;;29.90;57.80;;;;;;5120031;28;20028;-69
2021/06/17 07:02:35;;;;;;;5.15;3.10;;;29.90;58.60;;;;;;5120254;28;20036;-69
2021/06/17 07:05:03;;;;;;;6.38;4.03;;;30.20;59.10;;;;;;5120225;28;20051;-70
2021/06/17 07:07:29;;;;;;;9.02;3.97;;;30.10;56.60;;;;;;5119825;28;20023;-70
2021/06/17 07:09:54;;;;;;;11.43;4.03;;;30.00;57.00;;;;;;5120127;28;20084;-69
2021/06/17 07:12:20;;;;;;;9.18;4.43;;;30.20;58.10;;;;;;5120034;28;20028;-69
2021/06/17 07:14:46;;;;;;;7.32;4.25;;;30.30;59.60;;;;;;5120084;28;20042;-70
2021/06/17 07:17:12;;;;;;;7.05;3.75;;;30.50;58.40;;;;;;5119684;28;20020;-70
2021/06/17 07:19:37;;;;;;;6.30;4.30;;;30.90;58.40;;;;;;5119943;28;20035;-70
2021/06/17 07:22:03;;;;;;;4.25;3.83;;;30.80;57.30;;;;;;5119878;28;20020;-70
2021/06/17 07:24:29;;;;;;;8.55;4.90;;;30.60;57.00;;;;;;5119292;28;20024;-69
2021/06/17 07:26:55;;;;;;;6.90;3.53;;;30.70;54.60;;;;;;5119758;28;20027;-70
2021/06/17 07:29:21;;;;;;;6.28;3.70;;;31.00;56.20;;;;;;5119548;27;20353;-70
2021/06/17 07:31:47;;;;;;;7.60;4.85;;;31.20;55.00;;;;;;5119774;28;20319;-70
2021/06/17 07:34:13;;;;;;;7.72;3.72;;;31.20;54.80;;;;;;5119611;28;20034;-70
2021/06/17 07:36:40;;;;;;;8.48;4.10;;;31.20;56.10;;;;;;5119266;28;20023;-70
2021/06/17 07:39:08;;;;;;;7.10;3.83;;;31.10;56.30;;;;;;5119552;28;20047;-70
2021/06/17 07:41:33;;;;;;;5.35;3.83;;;31.30;56.70;;;;;;5119176;28;20032;-70
2021/06/17 07:44:00;;;;;;;7.40;4.38;;;31.50;56.40;;;;;;5119576;28;20114;-70
2021/06/17 07:46:25;;;;;;;8.27;3.83;;;31.50;54.20;;;;;;5119373;28;20039;-70
2021/06/17 07:48:51;;;;;;;6.18;3.67;;;31.60;56.00;;;;;;5119351;28;20411;-70
2021/06/17 07:51:17;;;;;;;6.15;3.30;;;31.60;55.50;;;;;;5119326;28;20362;-70
2021/06/17 07:53:43;;;;;;;6.00;3.40;;;31.60;54.70;;;;;;5119289;28;20387;-70
2021/06/17 07:56:09;;;;;;;6.75;3.30;;;31.40;58.00;;;;;;5119209;27;20098;-70
2021/06/17 07:58:35;;;;;;;7.90;3.55;;;31.60;59.20;;;;;;5119198;28;20036;-70
2021/06/17 08:01:01;;;;;;;6.00;3.92;;;31.80;55.00;;;;;;5119185;28;20015;-70
2021/06/17 08:03:29;;;;;;;6.45;3.80;;;31.70;55.30;;;;;;5118772;28;20395;-70
2021/06/17 08:05:55;;;;;;;7.28;3.60;;;31.80;58.00;;;;;;5119013;28;20059;-71
2021/06/17 08:08:22;;;;;;;6.13;3.33;;;31.80;55.50;;;;;;5119033;28;20435;-70
2021/06/17 08:10:48;;;;;;;6.50;3.45;;;32.00;57.90;;;;;;5118939;28;20343;-70
2021/06/17 08:13:14;;;;;;;5.18;3.80;;;32.30;56.80;;;;;;5118399;28;20039;-70
2021/06/17 08:15:40;;;;;;;8.85;4.45;;;32.60;56.10;;;;;;5118502;28;20020;-70
2021/06/17 08:18:06;;;;;;;6.70;4.47;;;32.30;54.20;;;;;;5118480;28;20030;-70
2021/06/17 08:20:32;;;;;;;4.75;3.65;;;32.30;54.10;;;;;;5118402;28;20419;-70
2021/06/17 08:22:58;;;;;;;6.72;4.03;;;32.40;56.40;;;;;;5118689;28;20099;-70
2021/06/17 08:25:24;;;;;;;7.20;3.83;;;32.60;54.80;;;;;;5118369;28;20068;-70
2021/06/17 08:27:49;;;;;;;6.25;4.38;;;32.70;55.10;;;;;;5118325;28;20027;-70
2021/06/17 08:30:20;;;;;;;7.28;3.85;;;32.70;54.70;;;;;;5118061;28;20097;-70
2021/06/17 08:32:48;;;;;;;6.22;3.63;;;32.90;55.90;;;;;;5118585;27;20354;-70
2021/06/17 08:35:15;;;;;;;8.55;4.05;;;32.90;54.50;;;;;;5117438;28;20028;-70
2021/06/17 08:37:41;;;;;;;6.85;4.80;;;32.80;53.70;;;;;;5118429;28;20119;-70
2021/06/17 08:40:09;;;;;;;5.05;4.07;;;32.90;53.50;;;;;;5118117;28;20043;-70
2021/06/17 08:42:34;;;;;;;7.80;4.30;;;32.40;53.90;;;;;;5118009;28;20019;-70
2021/06/17 08:45:05;;;;;;;6.63;4.82;;;32.50;53.60;;;;;;5118455;28;20095;-70
2021/06/17 08:47:32;;;;;;;8.40;4.53;;;32.50;53.70;;;;;;5118286;28;20055;-71
2021/06/17 08:50:00;;;;;;;9.82;4.28;;;32.60;53.50;;;;;;5118202;28;20031;-70
2021/06/17 08:52:31;;;;;;;5.95;4.30;;;32.80;54.80;;;;;;5118111;28;20031;-70
2021/06/17 08:55:14;;;;;;;9.45;3.88;;;32.90;53.80;;;;;;5117984;28;20023;-69
2021/06/17 08:57:41;;;;;;;6.28;4.43;;;32.70;57.20;;;;;;5117764;28;20036;-70
2021/06/17 09:00:16;;;;;;;9.93;4.95;;;32.70;58.50;;;;;;5117737;28;20395;-70
2021/06/17 09:02:52;;;;;;;6.25;5.10;;;32.80;55.80;;;;;;5117933;28;20028;-70
2021/06/17 09:05:18;;;;;;;6.18;4.85;;;32.70;55.10;;;;;;5117895;28;20020;-70
2021/06/17 09:07:44;;;;;;;7.03;5.05;;;32.50;54.20;;;;;;5117555;28;20109;-69
2021/06/17 09:10:10;;;;;;;5.45;4.40;;;32.40;55.20;;;;;;5117835;28;20020;-70
2021/06/17 09:12:43;;;;;;;9.63;5.05;;;32.50;56.40;;;;;;5117800;28;20019;-70
2021/06/17 09:15:09;;;;;;;8.13;4.85;;;32.80;53.80;;;;;;5117725;28;20035;-70
2021/06/17 09:17:35;;;;;;;5.30;4.50;;;32.90;54.50;;;;;;5117708;28;20027;-70
2021/06/17 09:20:03;;;;;;;11.80;4.93;;;33.10;54.70;;;;;;5117363;28;20319;-70
2021/06/17 09:22:28;;;;;;;8.80;5.50;;;33.20;53.50;;;;;;5117643;28;20100;-70
2021/06/17 09:24:56;;;;;;;8.18;4.97;;;33.30;52.30;;;;;;5117631;28;20407;-70
2021/06/17 09:27:43;;;;;;;10.80;5.35;;;33.30;54.00;;;;;;5117281;28;20035;-69
2021/06/17 09:30:12;;;;;;;9.18;5.07;;;33.20;52.70;;;;;;5117318;28;20051;-69
2021/06/17 09:32:40;;;;;;;7.07;5.35;;;33.20;54.00;;;;;;5117566;28;20297;-70
2021/06/17 09:35:20;;;;;;;6.88;4.50;;;33.40;52.00;;;;;;5117409;28;20323;-69
2021/06/17 09:37:46;;;;;;;5.10;4.60;;;33.70;55.50;;;;;;5117228;28;20024;-70
2021/06/17 09:40:24;;;;;;;8.07;4.95;;;33.90;53.30;;;;;;5117505;28;20024;-70
2021/06/17 09:42:51;;;;;;;6.13;4.90;;;34.10;54.30;;;;;;5117028;28;20031;-70
2021/06/17 09:45:19;;;;;;;7.70;5.85;;;34.10;52.50;;;;;;5117437;28;20099;-71
2021/06/17 09:47:45;;;;;;;7.78;5.22;;;33.90;51.40;;;;;;5120925;28;20111;-70
2021/06/17 09:50:26;;;;;;;5.50;4.28;;;34.00;51.30;;;;;;5121704;28;20056;-70
2021/06/17 09:52:54;;;;;;;10.05;5.38;;;34.00;53.90;;;;;;5121573;28;20036;-69
2021/06/17 09:55:40;;;;;;;9.88;4.53;;;33.90;55.80;;;;;;5121498;28;20046;-70
2021/06/17 09:58:32;;;;;;;10.60;6.00;;;33.80;55.90;;;;;;5121583;28;20016;-70
2021/06/17 10:00:58;;;;;;;8.93;5.50;;;33.90;54.00;;;;;;5121132;28;20072;-71
2021/06/17 10:03:24;;;;;;;8.70;5.75;;;34.00;53.40;;;;;;5121441;27;20296;-70
2021/06/17 10:05:50;;;;;;;8.18;5.28;;;34.20;51.60;;;;;;5121094;28;20311;-69
2021/06/17 10:08:16;;;;;;;7.55;5.50;;;34.30;50.70;;;;;;5121057;28;20031;-70
2021/06/17 10:10:42;;;;;;;9.93;5.60;;;34.30;52.70;;;;;;5121284;28;20027;-71
2021/06/17 10:13:09;;;;;;;9.85;6.35;;;34.10;55.20;;;;;;5120892;28;20042;-71
2021/06/17 10:15:35;;;;;;;8.48;5.10;;;34.00;54.10;;;;;;5121079;28;20310;-70
2021/06/17 10:18:01;;;;;;;8.02;5.38;;;33.70;56.50;;;;;;5114247;28;20035;-70
2021/06/17 10:20:28;;;;;;;9.02;5.15;;;33.60;56.20;;;;;;5112530;28;20407;-69
2021/06/17 10:22:56;;;;;;;8.95;5.97;;;33.70;56.20;;;;;;5121046;28;20311;-70
2021/06/17 10:25:40;;;;;;;6.32;5.10;;;33.70;54.10;;;;;;5120719;28;20020;-70
2021/06/17 10:28:05;;;;;;;8.88;5.97;;;33.70;54.00;;;;;;5120729;28;20030;-70
2021/06/17 10:30:57;;;;;;;6.53;5.00;;;33.60;56.10;;;;;;5120458;28;20048;-69
2021/06/17 10:33:37;;;;;;;9.90;5.20;;;33.80;56.70;;;;;;5117711;28;20067;-70
2021/06/17 10:36:24;;;;;;;6.20;5.25;;;33.80;54.40;;;;;;5120805;28;20020;-71
2021/06/17 10:39:20;;;;;;;8.27;4.70;;;33.70;55.80;;;;;;5120509;28;20034;-70
2021/06/17 10:41:51;;;;;;;9.23;6.07;;;33.50;57.40;;;;;;5107508;28;20055;-69
2021/06/17 10:44:36;;;;;;;9.18;5.43;;;33.60;54.90;;;;;;5120741;28;20048;-70
2021/06/17 10:47:05;;;;;;;10.45;5.65;;;32.70;56.20;;;;;;5120567;28;20028;-70
2021/06/17 10:49:48;;;;;;;13.00;6.70;;;31.50;58.40;;;;;;5120541;28;20031;-69
2021/06/17 10:52:31;;;;;;;11.93;7.13;;;30.90;59.40;;;;;;5120536;28;20106;-70
2021/06/17 10:54:58;;;;;;;7.80;5.85;;;31.10;59.00;;;;;;5120327;28;20312;-69
2021/06/17 10:57:42;;;;;;;6.40;5.15;;;31.70;61.40;;;;;;5120057;28;20323;-69
2021/06/17 11:00:28;;;;;;;11.80;7.37;;;32.00;56.80;;;;;;5120100;28;20400;-70
2021/06/17 11:03:06;;;;;;;7.70;6.97;;;31.30;56.60;;;;;;5120219;28;20023;-70
2021/06/17 11:05:35;;;;;;;12.15;6.63;;;31.20;57.80;;;;;;5120228;28;20031;-69
2021/06/17 11:08:26;;;;;;;10.65;6.20;;;31.40;58.40;;;;;;5120199;28;20040;-69
2021/06/17 11:11:04;;;;;;;9.65;6.40;;;31.70;58.60;;;;;;5120199;27;20365;-69
2021/06/17 11:13:41;;;;;;;8.60;6.82;;;31.80;56.30;;;;;;5119868;28;20042;-70
2021/06/17 11:16:30;;;;;;;11.07;6.75;;;31.30;55.30;;;;;;5120055;27;20027;-70
2021/06/17 11:19:09;;;;;;;10.40;6.47;;;30.60;59.60;;;;;;5120027;28;20030;-70
2021/06/17 11:21:35;;;;;;;8.00;5.35;;;30.50;62.30;;;;;;5119936;28;20035;-70
2021/06/17 11:24:07;;;;;;;9.30;6.10;;;30.90;61.90;;;;;;5119921;28;20032;-70
2021/06/17 11:26:44;;;;;;;8.30;6.90;;;31.50;60.90;;;;;;5119738;28;20032;-69
2021/06/17 11:29:20;;;;;;;9.35;6.35;;;31.90;58.00;;;;;;5119835;28;20035;-70
2021/06/17 11:31:50;;;;;;;7.82;5.72;;;32.00;56.40;;;;;;5119777;28;20059;-70
2021/06/17 11:34:36;;;;;;;6.85;6.10;;;32.20;57.40;;;;;;5119606;28;20024;-70
2021/06/17 11:37:12;;;;;;;8.38;5.88;;;32.30;57.10;;;;;;5119621;28;20119;-70
2021/06/17 11:39:38;;;;;;;7.28;6.10;;;32.30;58.10;;;;;;5119278;28;20019;-71
2021/06/17 11:42:05;;;;;;;9.13;4.93;;;32.40;57.20;;;;;;5119840;28;20034;-70
2021/06/17 11:44:32;;;;;;;9.43;5.60;;;32.40;55.70;;;;;;5119682;28;20032;-70
2021/06/17 11:47:09;;;;;;;9.75;5.40;;;32.30;55.50;;;;;;5119382;28;20323;-70
2021/06/17 11:49:39;;;;;;;9.15;5.15;;;32.10;58.80;;;;;;5119092;28;20028;-70
2021/06/17 11:52:10;;;;;;;12.60;6.07;;;32.00;55.20;;;;;;5119323;28;20073;-70
2021/06/17 11:54:37;;;;;;;7.68;5.80;;;31.80;60.10;;;;;;5119263;28;20034;-70
2021/06/17 11:57:04;;;;;;;7.05;5.05;;;31.50;57.20;;;;;;5119203;28;20047;-70
2021/06/17 11:59:33;;;;;;;12.35;6.95;;;31.40;57.50;;;;;;5118911;28;20319;-70
2021/06/17 12:02:18;;;;;;;8.07;5.70;;;31.30;54.60;;;;;;5119110;28;20028;-70
2021/06/17 12:04:59;;;;;;;7.88;6.38;;;31.00;57.60;;;;;;5119038;28;20049;-70
2021/06/17 12:07:30;;;;;;;10.00;6.15;;;31.00;59.60;;;;;;5119101;28;20040;-70
2021/06/17 12:10:05;;;;;;;10.23;6.20;;;30.90;58.60;;;;;;5117710;28;20036;-70
2021/06/17 12:12:31;;;;;;;;;;;30.80;57.70;;;;;;5119322;28;20304;-70
2021/06/17 12:14:58;;;;;;;6.82;6.13;;;30.70;58.70;;;;;;5119039;28;19911;-70
2021/06/17 12:17:39;;;;;;;8.68;5.78;;;30.60;57.10;;;;;;5118564;27;20031;-70
2021/06/17 12:20:31;;;;;;;8.48;5.75;;;30.30;58.00;;;;;;5118842;28;20020;-70
2021/06/17 12:23:00;;;;;;;6.40;5.18;;;30.00;60.00;;;;;;5118771;28;20032;-70
2021/06/17 12:25:40;;;;;;;8.30;6.43;;;29.70;63.90;;;;;;5118670;28;20413;-70
2021/06/17 12:28:08;;;;;;;8.45;4.90;;;29.50;58.90;;;;;;5118365;28;20424;-70
2021/06/17 12:30:37;;;;;;;5.78;4.88;;;29.60;64.70;;;;;;5118078;28;20427;-70
2021/06/17 12:33:18;;;;;;;7.82;5.38;;;29.70;62.30;;;;;;5118425;28;20058;-70
2021/06/17 12:36:03;;;;;;;9.68;6.85;;;29.90;61.30;;;;;;5118129;28;20107;-70
2021/06/17 12:38:35;;;;;;;10.35;7.07;;;30.10;61.00;;;;;;5118475;28;20038;-70
2021/06/17 12:41:14;;;;;;;8.70;6.15;;;30.20;61.60;;;;;;5118116;28;20023;-70
2021/06/17 12:43:51;;;;;;;6.93;5.38;;;30.20;58.90;;;;;;5118231;28;20081;-70
2021/06/17 12:46:22;;;;;;;6.13;4.63;;;30.00;61.80;;;;;;5118284;28;20106;-70
2021/06/17 12:54:10;;;;;;;9.10;6.50;;;28.90;63.10;;;;;;5118068;28;20381;-70
2021/06/17 12:57:00;;;;;;;10.95;6.07;;;29.00;62.30;;;;;;5118034;28;20031;-70
2021/06/17 12:59:39;;;;;;;7.95;6.10;;;28.90;65.20;;;;;;5118110;28;20024;-70
2021/06/17 13:02:10;;;;;;;7.05;6.32;;;29.00;64.10;;;;;;5117732;28;20027;-70
2021/06/17 13:04:36;;;;;;;10.68;6.03;;;29.00;63.90;;;;;;5117687;28;20024;-70
2021/06/17 13:07:16;;;;;;;8.30;6.10;;;28.80;65.80;;;;;;5117834;28;20032;-70